Aeroporto :
LOGIN :

Iscrizione | Disclaimer

   EN    FR    IT 

 










Sommario :    VFR   VFR Marginale   IFR   IFR Intensivo   IFR Molto Intensivo
Visibilità : 
Base nubi : 
>= 8 km
>= 3000ft
5 / 8 km
1000 / 3000 ft
1500m / 5 km
500 / 1000 ft
800 / 1500m
200 / 500 ft
< 800m
< 200 ft
Simboli :   Temporali  Nebbia  Neve Forte  Precipitazioni Forti  Vento > 20 kt
SIGMETs :   Varie  Temporali  Ghiacco  Turbolenza  Onda orograficha  Ceneri Vulcaniche






- Altitudine del aeroporto : 1568 ft


ETSB - Büchel AB

ULTIMO METAR :
  • 062051Z 28003KT 9999 FEW070 13/M02 Q1025 BLU+FCST CANCEL

METARs OBSOLETI :
  • 062020Z 26004KT 9999 FEW070 14/M02 Q1025 BLU+BLU+
  • 061920Z 24005KT 9999 FEW070 15/M02 Q1024 BLU+BLU+
  • 061820Z 23006KT 9999 FEW070 16/M02 Q1023 BLU+BLU+

TAF TAF ETSB
Valido dal 06 a 17 ore il 07 a 02 ore UTC


061620Z 0617/0702 24012KT 9999 NSW FEW070
BECMG 0621/0623 28005KT 9999 NSW BKN070 BY ETGL



MetMap, La meteo Aeronautica in un colpo d'occhio ! - Copyright ORBIFLY Dicembre 2007 - Disclaimer

ORBIFLY MET'MAP TEAM :

Programmazione e sviluppo : Alexandra Zaïnal
Concezione : Baudouin d'Aumeries
Aiuto per la programmazione : Marc-Olivier Méhu
Supporto tecnico e logistico : Manuel Goepfert
Aiuto per la traduzione : Arnaldo La Scala

Contatto : metmap@orbifly.com




FONTI E CREDITI :

   NOAA